createdAt,value
2017-05-28T00:00:20.705Z,31.20
2017-05-28T00:02:48.999Z,31.20
2017-05-28T00:05:17.446Z,31.30
2017-05-28T00:07:45.838Z,31.30
2017-05-28T00:10:14.130Z,31.30
2017-05-28T00:12:42.585Z,31.70
2017-05-28T00:15:10.968Z,32.40
2017-05-28T00:17:39.344Z,31.70
2017-05-28T00:20:07.723Z,31.20
2017-05-28T00:22:36.041Z,31.20
2017-05-28T00:25:04.333Z,31.50
2017-05-28T00:27:32.626Z,31.50
2017-05-28T00:30:01.247Z,32.00
2017-05-28T00:32:29.614Z,32.60
2017-05-28T00:34:58.196Z,32.50
2017-05-28T00:37:26.681Z,32.60
2017-05-28T00:39:55.061Z,32.70
2017-05-28T00:42:23.437Z,32.80
2017-05-28T00:44:51.924Z,33.30
2017-05-28T00:47:20.303Z,33.50
2017-05-28T00:49:48.601Z,34.10
2017-05-28T00:52:17.263Z,34.60
2017-05-28T00:54:45.642Z,34.60
2017-05-28T00:57:13.938Z,34.60
2017-05-28T00:59:42.255Z,34.70
2017-05-28T01:02:10.585Z,34.80
2017-05-28T01:04:38.881Z,34.90
2017-05-28T01:07:07.205Z,35.00
2017-05-28T01:09:35.714Z,35.60
2017-05-28T01:12:04.009Z,35.60
2017-05-28T01:14:32.298Z,36.40
2017-05-28T01:17:00.642Z,36.30
2017-05-28T01:19:28.938Z,36.00
2017-05-28T01:21:57.609Z,36.40
2017-05-28T01:24:25.931Z,38.50
2017-05-28T01:26:54.270Z,39.10
2017-05-28T01:29:22.663Z,38.20
2017-05-28T01:31:50.953Z,38.40
2017-05-28T01:34:19.596Z,38.50
2017-05-28T01:36:49.543Z,38.30
2017-05-28T01:39:17.816Z,39.10
2017-05-28T01:41:46.147Z,39.30
2017-05-28T01:44:14.456Z,40.30
2017-05-28T01:46:42.827Z,41.60
2017-05-28T01:49:11.314Z,41.40
2017-05-28T01:51:39.687Z,40.70
2017-05-28T01:54:08.072Z,40.90
2017-05-28T01:56:36.396Z,41.40
2017-05-28T01:59:04.737Z,42.10
2017-05-28T02:01:33.016Z,42.10
2017-05-28T02:04:01.379Z,42.00
2017-05-28T02:06:29.665Z,42.70
2017-05-28T02:08:58.040Z,43.10
2017-05-28T02:11:26.724Z,43.30
2017-05-28T02:13:55.012Z,43.90
2017-05-28T02:16:23.387Z,44.60
2017-05-28T02:18:51.727Z,45.40
2017-05-28T02:21:20.008Z,46.50
2017-05-28T02:23:48.297Z,46.90
2017-05-28T02:26:16.692Z,47.10
2017-05-28T02:28:45.177Z,47.90
2017-05-28T02:31:13.460Z,47.80
2017-05-28T02:33:41.731Z,48.10
2017-05-28T02:36:10.313Z,49.00
2017-05-28T02:38:38.594Z,49.30
2017-05-28T02:41:06.867Z,49.60
2017-05-28T02:43:35.347Z,49.50
2017-05-28T02:46:03.733Z,50.60
2017-05-28T02:48:32.076Z,51.20
2017-05-28T02:51:00.403Z,51.30
2017-05-28T02:53:28.863Z,51.50
2017-05-28T02:55:57.460Z,51.60
2017-05-28T02:58:26.239Z,51.90
2017-05-28T03:00:54.525Z,52.20
2017-05-28T03:03:22.804Z,53.20
2017-05-28T03:05:51.121Z,53.80
2017-05-28T03:08:19.456Z,53.40
2017-05-28T03:10:47.827Z,53.40
2017-05-28T03:13:16.214Z,53.80
2017-05-28T03:15:44.583Z,54.60
2017-05-28T03:18:12.963Z,54.80
2017-05-28T03:20:41.347Z,55.20
2017-05-28T03:23:09.725Z,55.10
2017-05-28T03:25:38.104Z,55.40
2017-05-28T03:28:06.484Z,55.30
2017-05-28T03:30:34.865Z,55.90
2017-05-28T03:33:03.373Z,55.80
2017-05-28T03:35:31.652Z,55.50
2017-05-28T03:37:59.948Z,55.50
2017-05-28T03:40:28.688Z,56.30
2017-05-28T03:42:56.976Z,55.70
2017-05-28T03:45:25.344Z,55.50
2017-05-28T03:47:53.724Z,55.30
2017-05-28T03:50:22.099Z,55.20
2017-05-28T03:52:50.389Z,55.60
2017-05-28T03:55:18.699Z,55.80
2017-05-28T03:57:46.983Z,56.00
2017-05-28T04:00:15.419Z,55.60
2017-05-28T04:02:43.704Z,55.70
2017-05-28T04:05:12.080Z,55.50
2017-05-28T04:07:40.452Z,55.40
2017-05-28T04:10:08.728Z,55.60
2017-05-28T04:12:37.421Z,55.50
2017-05-28T04:15:06.101Z,55.10
2017-05-28T04:17:34.385Z,55.00
2017-05-28T04:20:02.678Z,54.70
2017-05-28T04:22:30.996Z,54.60
2017-05-28T04:24:59.276Z,54.80
2017-05-28T04:27:27.567Z,55.00
2017-05-28T04:29:56.101Z,54.00
2017-05-28T04:32:24.488Z,53.70
2017-05-28T04:34:52.778Z,52.70
2017-05-28T04:37:21.340Z,51.10
2017-05-28T04:39:49.624Z,51.00
2017-05-28T04:42:17.996Z,50.40
2017-05-28T04:44:46.321Z,49.60
2017-05-28T04:47:14.655Z,46.70
2017-05-28T04:49:43.034Z,46.20
2017-05-28T04:52:11.435Z,45.60
2017-05-28T04:54:39.717Z,45.70
2017-05-28T04:57:08.028Z,45.70
2017-05-28T04:59:36.308Z,44.80
2017-05-28T05:02:04.616Z,44.40
2017-05-28T05:04:33.000Z,45.00
2017-05-28T05:07:01.324Z,45.30
2017-05-28T05:09:29.604Z,43.10
2017-05-28T05:11:57.939Z,43.50
2017-05-28T05:14:26.260Z,43.80
2017-05-28T05:16:54.541Z,43.50
2017-05-28T05:19:22.860Z,43.80
2017-05-28T05:21:51.246Z,44.50
2017-05-28T05:24:19.624Z,44.30
2017-05-28T05:26:47.906Z,44.30
2017-05-28T05:29:16.281Z,44.70
2017-05-28T05:31:44.564Z,44.60
2017-05-28T05:34:13.352Z,45.10
2017-05-28T05:36:41.655Z,45.90
2017-05-28T05:39:09.944Z,47.20
2017-05-28T05:41:38.590Z,46.70
2017-05-28T05:44:06.964Z,44.80
2017-05-28T05:46:35.344Z,45.30
2017-05-28T05:49:03.760Z,45.50
2017-05-28T05:51:32.045Z,45.50
2017-05-28T05:54:00.380Z,45.10
2017-05-28T05:56:28.687Z,45.40
2017-05-28T05:58:57.037Z,45.50
2017-05-28T06:01:25.317Z,46.10
2017-05-28T06:03:53.796Z,46.40
2017-05-28T06:06:22.780Z,47.50
2017-05-28T06:08:51.092Z,47.50
2017-05-28T06:11:19.581Z,48.00
2017-05-28T06:13:47.861Z,49.00
2017-05-28T06:16:16.232Z,49.60
2017-05-28T06:18:44.618Z,49.60
2017-05-28T06:21:12.994Z,51.20
2017-05-28T06:23:41.276Z,53.20
2017-05-28T06:26:09.952Z,53.50
2017-05-28T06:28:38.232Z,53.60
2017-05-28T06:31:06.616Z,56.70
2017-05-28T06:33:35.094Z,59.40
2017-05-28T06:36:03.376Z,61.80
2017-05-28T06:38:31.652Z,67.30
2017-05-28T06:41:00.026Z,70.40
2017-05-28T06:43:28.308Z,70.10
2017-05-28T06:45:56.632Z,73.90
2017-05-28T06:48:25.063Z,75.80
2017-05-28T06:50:53.438Z,75.40
2017-05-28T06:53:21.818Z,77.10
2017-05-28T06:55:50.195Z,78.60
2017-05-28T06:58:18.576Z,79.60
2017-05-28T07:00:46.868Z,79.30
2017-05-28T07:03:15.237Z,77.60
2017-05-28T07:05:43.532Z,76.10
2017-05-28T07:08:11.849Z,74.20
2017-05-28T07:10:40.170Z,73.90
2017-05-28T07:13:08.550Z,72.90
2017-05-28T07:15:37.233Z,71.70
2017-05-28T07:18:05.521Z,68.80
2017-05-28T07:20:33.893Z,66.50
2017-05-28T07:23:02.373Z,63.90
2017-05-28T07:25:30.747Z,60.50
2017-05-28T07:27:59.040Z,67.40
2017-05-28T07:30:27.508Z,62.40
2017-05-28T07:32:55.789Z,61.00
2017-05-28T07:35:24.078Z,58.20
2017-05-28T07:37:52.409Z,58.00
2017-05-28T07:40:20.724Z,59.10
2017-05-28T07:42:49.084Z,57.20
2017-05-28T07:45:17.482Z,58.50
2017-05-28T07:47:45.858Z,57.50
2017-05-28T07:50:14.336Z,53.30
2017-05-28T07:52:48.252Z,45.80
2017-05-28T07:55:16.560Z,44.30
2017-05-28T07:57:44.847Z,45.60
2017-05-28T08:00:13.137Z,50.70
2017-05-28T08:02:41.453Z,55.90
2017-05-28T08:05:09.836Z,58.70
2017-05-28T08:07:38.218Z,56.50
2017-05-28T08:10:06.548Z,53.70
2017-05-28T08:12:34.835Z,53.20
2017-05-28T08:15:03.148Z,52.40
2017-05-28T08:17:31.481Z,53.30
2017-05-28T08:19:59.804Z,52.30
2017-05-28T08:22:28.086Z,55.80
2017-05-28T08:24:56.409Z,56.30
2017-05-28T08:27:25.044Z,55.50
2017-05-28T08:29:53.768Z,53.30
2017-05-28T08:32:22.116Z,52.90
2017-05-28T08:34:50.488Z,53.20
2017-05-28T08:37:18.868Z,54.40
2017-05-28T08:39:47.255Z,53.00
2017-05-28T08:42:16.451Z,54.00
2017-05-28T08:44:44.836Z,54.50
2017-05-28T08:47:13.124Z,55.30
2017-05-28T08:49:41.585Z,55.80
2017-05-28T08:52:09.966Z,57.80
2017-05-28T08:54:37.543Z,57.80
2017-05-28T08:57:05.909Z,55.80
2017-05-28T08:59:34.287Z,56.20
2017-05-28T09:02:03.276Z,60.90
2017-05-28T09:04:31.564Z,61.40
2017-05-28T09:06:59.939Z,64.10
2017-05-28T09:09:28.253Z,64.50
2017-05-28T09:11:56.592Z,66.00
2017-05-28T09:14:25.068Z,74.90
2017-05-28T09:16:53.360Z,81.40
2017-05-28T09:19:21.723Z,91.20
2017-05-28T09:21:50.110Z,92.00
2017-05-28T09:24:18.404Z,93.50
2017-05-28T09:26:46.969Z,95.50
2017-05-28T09:29:15.350Z,95.90
2017-05-28T09:31:43.631Z,96.70
2017-05-28T09:34:12.204Z,98.30
2017-05-28T09:36:40.592Z,99.00
2017-05-28T09:39:08.872Z,99.60
2017-05-28T09:41:37.211Z,99.90
2017-05-28T09:44:05.522Z,99.90
2017-05-28T09:46:33.807Z,99.90
2017-05-28T09:49:02.585Z,99.90
2017-05-28T09:51:30.970Z,99.90
2017-05-28T09:53:59.260Z,99.90
2017-05-28T09:56:27.728Z,99.90
2017-05-28T09:58:56.023Z,99.90
2017-05-28T10:01:24.305Z,99.90
2017-05-28T10:03:52.631Z,99.90
2017-05-28T10:06:20.920Z,99.90
2017-05-28T10:08:49.262Z,99.90
2017-05-28T10:11:17.549Z,99.90
2017-05-28T10:13:45.845Z,99.90
2017-05-28T10:16:14.250Z,99.90
2017-05-28T10:18:42.552Z,99.90
2017-05-28T10:21:10.837Z,99.90
2017-05-28T10:23:39.152Z,99.90
2017-05-28T10:26:07.443Z,99.90
2017-05-28T10:28:35.864Z,99.90
2017-05-28T10:31:04.380Z,99.90
2017-05-28T10:33:32.689Z,99.90
2017-05-28T10:36:01.081Z,99.90
2017-05-28T10:38:29.364Z,99.90
2017-05-28T10:40:57.728Z,99.90
2017-05-28T10:43:26.114Z,99.90
2017-05-28T10:45:54.595Z,99.90
2017-05-28T10:48:23.329Z,99.90
2017-05-28T10:50:51.768Z,99.90
2017-05-28T10:53:20.250Z,99.90
2017-05-28T10:55:48.621Z,99.90
2017-05-28T10:58:17.012Z,99.90
2017-05-28T11:00:45.588Z,99.90
2017-05-28T11:03:14.045Z,98.80
2017-05-28T11:05:42.361Z,98.60
2017-05-28T11:08:10.692Z,98.70
2017-05-28T11:10:38.980Z,97.80
2017-05-28T11:13:07.261Z,98.80
2017-05-28T11:15:35.585Z,98.70
2017-05-28T11:18:04.148Z,99.90
2017-05-28T11:20:32.436Z,99.10
2017-05-28T11:23:00.716Z,94.10
2017-05-28T11:25:29.050Z,95.80
2017-05-28T11:27:57.464Z,94.90
2017-05-28T11:30:25.750Z,94.30
2017-05-28T11:32:54.033Z,96.50
2017-05-28T11:35:22.352Z,94.50
2017-05-28T11:37:50.647Z,94.00
2017-05-28T11:40:18.938Z,95.70
2017-05-28T11:42:47.260Z,95.40
2017-05-28T11:45:15.577Z,95.60
2017-05-28T11:47:43.907Z,91.20
2017-05-28T11:50:12.249Z,93.00
2017-05-28T11:52:40.633Z,93.50
2017-05-28T11:55:09.008Z,92.10
2017-05-28T11:57:37.313Z,92.20
2017-05-28T12:00:05.596Z,90.70
2017-05-28T12:02:34.145Z,90.90
2017-05-28T12:05:02.425Z,87.70
2017-05-28T12:07:30.880Z,81.50
2017-05-28T12:09:59.280Z,67.00
2017-05-28T12:12:27.555Z,67.50
2017-05-28T12:14:55.828Z,68.40
2017-05-28T12:17:24.316Z,64.40
2017-05-28T12:19:53.300Z,59.70
2017-05-28T12:22:21.581Z,58.20
2017-05-28T12:24:50.071Z,58.10
2017-05-28T12:27:18.348Z,58.70
2017-05-28T12:29:46.721Z,58.20
2017-05-28T12:32:15.580Z,58.80
2017-05-28T12:34:43.861Z,59.90
2017-05-28T12:37:12.173Z,58.20
2017-05-28T12:39:40.496Z,56.80
2017-05-28T12:42:08.831Z,56.80
2017-05-28T12:44:37.223Z,58.20
2017-05-28T12:47:05.536Z,56.50
2017-05-28T12:49:33.818Z,56.90
2017-05-28T12:52:02.095Z,56.10
2017-05-28T12:54:30.516Z,56.80
2017-05-28T12:56:58.902Z,57.90
2017-05-28T12:59:27.375Z,54.90
2017-05-28T13:01:55.693Z,55.20
2017-05-28T13:04:24.042Z,51.90
2017-05-28T13:06:52.365Z,45.40
2017-05-28T13:09:20.650Z,45.40
2017-05-28T13:11:48.972Z,47.20
2017-05-28T13:14:17.280Z,42.90
2017-05-28T13:16:45.626Z,42.40
2017-05-28T13:19:14.110Z,42.20
2017-05-28T13:21:42.485Z,41.80
2017-05-28T13:24:10.864Z,39.90
2017-05-28T13:26:39.207Z,41.30
2017-05-28T13:29:07.525Z,42.80
2017-05-28T13:31:35.809Z,38.90
2017-05-28T13:34:04.127Z,38.10
2017-05-28T13:36:32.452Z,38.90
2017-05-28T13:39:00.838Z,39.50
2017-05-28T13:41:29.220Z,39.00
2017-05-28T13:43:57.598Z,38.80
2017-05-28T13:46:25.976Z,38.50
2017-05-28T13:48:54.294Z,39.40
2017-05-28T13:51:22.731Z,40.40
2017-05-28T13:53:51.008Z,38.80
2017-05-28T13:56:19.400Z,37.60
2017-05-28T13:58:47.733Z,38.40
2017-05-28T14:01:16.054Z,39.60
2017-05-28T14:03:44.433Z,36.00
2017-05-28T14:06:12.756Z,35.40
2017-05-28T14:08:41.035Z,32.00
2017-05-28T14:11:09.311Z,32.90
2017-05-28T14:13:37.646Z,30.70
2017-05-28T14:16:06.015Z,30.80
2017-05-28T14:18:34.320Z,32.60
2017-05-28T14:21:02.635Z,31.50
2017-05-28T14:23:30.911Z,32.30
2017-05-28T14:25:59.224Z,33.00
2017-05-28T14:28:27.499Z,32.20
2017-05-28T14:30:55.775Z,31.60
2017-05-28T14:33:24.252Z,31.80
2017-05-28T14:35:52.538Z,31.90
2017-05-28T14:38:20.850Z,30.50
2017-05-28T14:40:49.156Z,30.60
2017-05-28T14:43:17.432Z,30.70
2017-05-28T14:45:45.849Z,30.70
2017-05-28T14:48:14.121Z,30.20
2017-05-28T14:50:42.411Z,31.10
2017-05-28T14:53:10.737Z,31.80
2017-05-28T14:55:39.122Z,30.00
2017-05-28T14:58:07.589Z,29.70
2017-05-28T15:00:35.859Z,30.80
2017-05-28T15:03:04.133Z,32.40
2017-05-28T15:05:32.436Z,32.70
2017-05-28T15:08:00.795Z,30.50
2017-05-28T15:10:29.172Z,29.90
2017-05-28T15:12:57.499Z,30.00
2017-05-28T15:15:25.829Z,31.50
2017-05-28T15:17:54.105Z,28.90
2017-05-28T15:20:22.428Z,30.20
2017-05-28T15:22:50.700Z,29.50
2017-05-28T15:25:18.979Z,30.90
2017-05-28T15:27:47.429Z,30.50
2017-05-28T15:30:15.708Z,30.70
2017-05-28T15:32:43.979Z,31.00
2017-05-28T15:35:12.328Z,30.80
2017-05-28T15:37:40.613Z,29.90
2017-05-28T15:40:08.980Z,29.60
2017-05-28T15:42:37.258Z,29.10
2017-05-28T15:45:05.739Z,28.60
2017-05-28T15:47:34.120Z,29.20
2017-05-28T15:50:02.392Z,29.20
2017-05-28T15:52:30.704Z,29.70
2017-05-28T15:54:58.980Z,27.30
2017-05-28T15:57:27.745Z,28.10
2017-05-28T15:59:56.231Z,27.70
2017-05-28T16:02:24.528Z,27.90
2017-05-28T16:04:52.365Z,27.90
2017-05-28T16:07:20.673Z,28.90
2017-05-28T16:09:48.985Z,28.70
2017-05-28T16:12:17.392Z,28.00
2017-05-28T16:14:45.680Z,28.40
2017-05-28T16:17:14.096Z,26.70
2017-05-28T16:19:42.589Z,27.60
2017-05-28T16:22:10.879Z,26.80
2017-05-28T16:24:39.309Z,28.20
2017-05-28T16:27:08.724Z,26.90
2017-05-28T16:29:37.085Z,25.80
2017-05-28T16:32:05.371Z,25.40
2017-05-28T16:34:33.711Z,26.10
2017-05-28T16:37:02.017Z,26.50
2017-05-28T16:39:30.308Z,27.30
2017-05-28T16:41:59.030Z,27.30
2017-05-28T16:44:27.304Z,27.80
2017-05-28T16:46:55.587Z,27.70
2017-05-28T16:49:23.912Z,28.10
2017-05-28T16:51:52.198Z,28.10
2017-05-28T16:54:20.481Z,28.10
2017-05-28T16:56:49.322Z,27.70
2017-05-28T16:59:17.600Z,27.40
2017-05-28T17:01:45.880Z,27.30
2017-05-28T17:04:13.821Z,27.30
2017-05-28T17:06:42.096Z,27.30
2017-05-28T17:09:10.388Z,27.50
2017-05-28T17:11:38.885Z,27.50
2017-05-28T17:14:07.162Z,27.90
2017-05-28T17:16:35.641Z,29.20
2017-05-28T17:19:03.964Z,28.10
2017-05-28T17:21:32.244Z,28.10
2017-05-28T17:24:00.521Z,28.40
2017-05-28T17:26:28.841Z,27.50
2017-05-28T17:28:57.233Z,26.50
2017-05-28T17:31:25.618Z,25.80
2017-05-28T17:33:54.250Z,25.70
2017-05-28T17:36:22.540Z,25.90
2017-05-28T17:38:50.860Z,25.50
2017-05-28T17:41:19.537Z,25.70
2017-05-28T17:43:47.892Z,25.30
2017-05-28T17:46:16.274Z,25.80
2017-05-28T17:48:44.597Z,26.90
2017-05-28T17:51:12.876Z,27.40
2017-05-28T17:53:41.152Z,27.80
2017-05-28T17:56:09.919Z,28.00
2017-05-28T17:58:38.297Z,28.90
2017-05-28T18:01:06.572Z,29.20
2017-05-28T18:03:34.897Z,30.10
2017-05-28T18:06:03.224Z,31.00
2017-05-28T18:08:31.499Z,30.90
2017-05-28T18:10:59.812Z,31.20
2017-05-28T18:13:28.088Z,31.30
2017-05-28T18:15:56.554Z,32.70
2017-05-28T18:18:24.872Z,33.80
2017-05-28T18:20:53.160Z,34.70
2017-05-28T18:23:21.440Z,35.70
2017-05-28T18:25:50.164Z,35.80
2017-05-28T18:28:18.543Z,36.50
2017-05-28T18:30:46.828Z,37.40
2017-05-28T18:33:15.164Z,38.40
2017-05-28T18:35:43.545Z,39.00
2017-05-28T18:38:11.829Z,39.80
2017-05-28T18:40:40.349Z,40.70
2017-05-28T18:43:08.692Z,42.20
2017-05-28T18:45:36.969Z,42.10
2017-05-28T18:48:05.343Z,42.80
2017-05-28T18:50:33.716Z,43.00
2017-05-28T18:53:02.012Z,43.60
2017-05-28T18:55:30.376Z,44.80
2017-05-28T18:57:58.690Z,44.40
2017-05-28T19:00:26.984Z,44.70
2017-05-28T19:02:55.301Z,45.40
2017-05-28T19:05:23.668Z,45.80
2017-05-28T19:07:51.949Z,45.80
2017-05-28T19:10:20.264Z,45.70
2017-05-28T19:12:48.720Z,46.60
2017-05-28T19:15:17.096Z,46.60
2017-05-28T19:17:45.483Z,47.30
2017-05-28T19:20:13.863Z,47.50
2017-05-28T19:22:42.171Z,47.60
2017-05-28T19:25:10.553Z,47.80
2017-05-28T19:27:38.919Z,47.90
2017-05-28T19:30:07.313Z,48.30
2017-05-28T19:32:35.592Z,48.30
2017-05-28T19:35:04.335Z,49.40
2017-05-28T19:37:32.633Z,50.00
2017-05-28T19:40:00.911Z,50.00
2017-05-28T19:42:29.220Z,49.90
2017-05-28T19:44:57.591Z,50.00
2017-05-28T19:47:25.915Z,50.80
2017-05-28T19:49:54.201Z,51.40
2017-05-28T19:52:22.633Z,51.90
2017-05-28T19:54:51.000Z,53.10
2017-05-28T19:57:19.281Z,53.10
2017-05-28T19:59:48.078Z,54.40
2017-05-28T20:02:16.364Z,54.60
2017-05-28T20:04:44.646Z,55.50
2017-05-28T20:07:13.104Z,56.80
2017-05-28T20:09:41.484Z,56.80
2017-05-28T20:12:09.865Z,57.70
2017-05-28T20:14:38.282Z,58.80
2017-05-28T20:17:06.565Z,59.50
2017-05-28T20:19:34.901Z,60.30
2017-05-28T20:22:03.260Z,61.40
2017-05-28T20:24:31.642Z,62.00
2017-05-28T20:27:00.021Z,62.00
2017-05-28T20:29:28.407Z,62.40
2017-05-28T20:31:56.858Z,63.30
2017-05-28T20:34:25.236Z,63.30
2017-05-28T20:36:53.617Z,63.20
2017-05-28T20:39:22.101Z,63.40
2017-05-28T20:41:50.399Z,65.20
2017-05-28T20:44:18.772Z,66.00
2017-05-28T20:46:47.152Z,68.30
2017-05-28T20:49:15.538Z,68.20
2017-05-28T20:51:43.906Z,68.30
2017-05-28T20:54:12.184Z,69.30
2017-05-28T20:56:40.489Z,70.30
2017-05-28T20:59:08.799Z,70.70
2017-05-28T21:01:37.084Z,70.80
2017-05-28T21:04:05.412Z,72.20
2017-05-28T21:06:33.713Z,72.00
2017-05-28T21:09:01.997Z,71.30
2017-05-28T21:11:30.472Z,72.00
2017-05-28T21:13:58.855Z,73.20
2017-05-28T21:16:27.166Z,72.10
2017-05-28T21:18:56.020Z,72.90
2017-05-28T21:21:24.305Z,71.60
2017-05-28T21:23:52.657Z,71.70
2017-05-28T21:26:21.032Z,71.20
2017-05-28T21:28:49.341Z,70.80
2017-05-28T21:31:17.689Z,70.50
2017-05-28T21:33:46.069Z,71.40
2017-05-28T21:36:13.610Z,71.40
2017-05-28T21:38:41.920Z,71.50
2017-05-28T21:41:11.002Z,71.40
2017-05-28T21:43:39.381Z,71.10
2017-05-28T21:46:07.663Z,71.80
2017-05-28T21:48:36.053Z,71.40
2017-05-28T21:51:04.419Z,70.90
2017-05-28T21:53:32.797Z,71.40
2017-05-28T21:56:01.280Z,71.40
2017-05-28T21:58:29.571Z,70.80
2017-05-28T22:00:57.848Z,70.50
2017-05-28T22:03:26.168Z,71.00
2017-05-28T22:05:54.489Z,71.50
2017-05-28T22:08:22.844Z,71.30
2017-05-28T22:10:51.220Z,72.10
2017-05-28T22:13:19.512Z,71.50
2017-05-28T22:15:47.882Z,71.40
2017-05-28T22:18:16.196Z,70.60
2017-05-28T22:20:44.511Z,70.60
2017-05-28T22:23:12.796Z,70.20
2017-05-28T22:25:41.119Z,69.50
2017-05-28T22:28:09.404Z,70.00
2017-05-28T22:30:37.692Z,69.40
2017-05-28T22:33:06.119Z,69.20
2017-05-28T22:35:34.500Z,69.10
2017-05-28T22:38:02.781Z,69.10
2017-05-28T22:40:31.160Z,69.30
2017-05-28T22:42:59.540Z,69.50
2017-05-28T22:45:28.885Z,69.50
2017-05-28T22:47:57.245Z,69.70
2017-05-28T22:50:25.624Z,69.60
2017-05-28T22:52:54.004Z,69.80
2017-05-28T22:55:22.295Z,69.80
2017-05-28T22:57:50.660Z,70.20
2017-05-28T23:00:18.941Z,70.30
2017-05-28T23:02:47.231Z,71.10
2017-05-28T23:05:15.859Z,71.50
2017-05-28T23:07:44.278Z,71.60
2017-05-28T23:10:12.558Z,71.70
2017-05-28T23:12:41.201Z,72.30
2017-05-28T23:15:09.488Z,73.00
2017-05-28T23:17:37.797Z,72.80
2017-05-28T23:20:06.113Z,73.40
2017-05-28T23:22:34.551Z,73.80
2017-05-28T23:25:02.836Z,74.10
2017-05-28T23:27:31.208Z,73.90
2017-05-28T23:29:59.587Z,73.90
2017-05-28T23:32:27.967Z,74.50
2017-05-28T23:34:56.348Z,75.40
2017-05-28T23:37:24.971Z,75.40
2017-05-28T23:39:53.313Z,75.30
2017-05-28T23:42:21.596Z,75.30
2017-05-28T23:44:49.968Z,76.40
2017-05-28T23:47:18.250Z,78.10
2017-05-28T23:49:46.540Z,78.10
2017-05-28T23:52:14.852Z,78.40
2017-05-28T23:54:43.141Z,79.50
2017-05-28T23:57:11.475Z,79.70
2017-05-28T23:59:39.824Z,80.20
